createdAt,value
2022-07-26T00:01:55.933Z,4.30
2022-07-26T00:04:30.055Z,4.33
2022-07-26T00:07:06.855Z,4.10
2022-07-26T00:09:48.412Z,4.10
2022-07-26T00:12:20.444Z,4.87
2022-07-26T00:14:54.449Z,4.30
2022-07-26T00:17:28.252Z,4.17
2022-07-26T00:20:01.840Z,4.07
2022-07-26T00:22:38.962Z,3.90
2022-07-26T00:25:19.162Z,3.87
2022-07-26T00:27:52.699Z,4.00
2022-07-26T00:30:26.423Z,4.00
2022-07-26T00:33:00.121Z,3.80
2022-07-26T00:35:34.082Z,3.63
2022-07-26T00:38:07.820Z,3.40
2022-07-26T00:40:42.803Z,3.40
2022-07-26T00:43:16.693Z,3.40
2022-07-26T00:45:50.516Z,3.37
2022-07-26T00:48:24.525Z,3.60
2022-07-26T00:50:59.711Z,3.50
2022-07-26T00:53:33.200Z,3.80
2022-07-26T00:56:07.194Z,3.40
2022-07-26T00:58:45.669Z,3.73
2022-07-26T01:01:19.022Z,3.50
2022-07-26T01:03:54.188Z,3.20
2022-07-26T01:06:28.613Z,2.70
2022-07-26T01:09:03.284Z,2.80
2022-07-26T01:11:37.458Z,2.80
2022-07-26T01:14:19.354Z,2.70
2022-07-26T01:16:53.756Z,2.90
2022-07-26T01:19:27.732Z,2.90
2022-07-26T01:22:01.679Z,3.20
2022-07-26T01:24:35.206Z,3.07
2022-07-26T01:27:08.602Z,3.00
2022-07-26T01:29:42.284Z,3.20
2022-07-26T01:32:23.441Z,3.10
2022-07-26T01:34:57.185Z,3.30
2022-07-26T01:37:30.593Z,3.40
2022-07-26T01:40:04.726Z,3.40
2022-07-26T01:42:44.029Z,3.37
2022-07-26T01:45:17.635Z,3.40
2022-07-26T01:47:57.631Z,3.70
2022-07-26T01:50:37.576Z,3.50
2022-07-26T01:53:11.824Z,3.70
2022-07-26T01:55:45.298Z,3.70
2022-07-26T01:58:19.116Z,3.80
2022-07-26T02:00:52.838Z,3.67
2022-07-26T02:03:26.251Z,3.63
2022-07-26T02:06:04.827Z,3.50
2022-07-26T02:08:39.090Z,3.47
2022-07-26T02:11:12.694Z,3.43
2022-07-26T02:13:53.288Z,3.80
2022-07-26T02:16:26.605Z,3.80
2022-07-26T02:19:00.339Z,4.20
2022-07-26T02:21:40.035Z,3.80
2022-07-26T02:24:13.656Z,3.70
2022-07-26T02:26:47.698Z,3.60
2022-07-26T02:29:21.354Z,3.60
2022-07-26T02:31:55.715Z,3.60
2022-07-26T02:34:33.812Z,3.60
2022-07-26T02:37:04.881Z,3.90
2022-07-26T02:39:38.814Z,4.10
2022-07-26T02:42:12.714Z,4.00
2022-07-26T02:44:46.299Z,3.90
2022-07-26T02:47:19.900Z,3.80
2022-07-26T02:49:53.306Z,3.80
2022-07-26T02:52:26.753Z,3.83
2022-07-26T02:55:00.675Z,3.90
2022-07-26T02:57:40.339Z,3.70
2022-07-26T03:00:10.290Z,3.60
2022-07-26T03:02:44.129Z,3.63
2022-07-26T03:05:17.855Z,3.60
2022-07-26T03:07:55.503Z,3.60
2022-07-26T03:10:29.340Z,3.90
2022-07-26T03:13:09.226Z,3.80
2022-07-26T03:15:48.493Z,3.90
2022-07-26T03:18:21.953Z,3.80
2022-07-26T03:20:56.561Z,3.70
2022-07-26T03:23:30.387Z,3.60
2022-07-26T03:26:04.029Z,3.60
2022-07-26T03:28:37.803Z,3.80
2022-07-26T03:31:11.259Z,3.70
2022-07-26T03:33:45.204Z,3.80
2022-07-26T03:36:18.634Z,3.80
2022-07-26T03:38:52.473Z,3.80
2022-07-26T03:41:26.278Z,3.80
2022-07-26T03:43:59.609Z,3.70
2022-07-26T03:46:33.201Z,3.70
2022-07-26T03:49:16.380Z,3.70
2022-07-26T03:51:46.593Z,3.63
2022-07-26T03:54:20.071Z,3.60
2022-07-26T03:56:59.503Z,3.50
2022-07-26T03:59:32.877Z,3.50
2022-07-26T04:02:06.670Z,3.50
2022-07-26T04:04:47.049Z,3.30
2022-07-26T04:07:21.942Z,3.40
2022-07-26T04:09:57.376Z,3.10
2022-07-26T04:12:31.616Z,3.20
2022-07-26T04:15:11.815Z,3.10
2022-07-26T04:17:47.369Z,3.10
2022-07-26T04:20:21.272Z,3.20
2022-07-26T04:22:55.235Z,3.07
2022-07-26T04:25:38.543Z,2.90
2022-07-26T04:28:03.706Z,2.93
2022-07-26T04:30:38.069Z,3.10
2022-07-26T04:33:11.699Z,3.10
2022-07-26T04:35:45.155Z,3.00
2022-07-26T04:38:19.429Z,2.90
2022-07-26T04:40:53.844Z,3.40
2022-07-26T04:43:28.324Z,3.00
2022-07-26T04:46:03.230Z,3.00
2022-07-26T04:48:37.946Z,3.17
2022-07-26T04:51:11.621Z,2.93
2022-07-26T04:53:45.345Z,3.00
2022-07-26T04:56:19.621Z,3.00
2022-07-26T04:58:53.336Z,2.87
2022-07-26T05:01:32.698Z,2.80
2022-07-26T05:04:06.586Z,2.80
2022-07-26T05:06:40.165Z,2.93
2022-07-26T05:09:13.773Z,3.13
2022-07-26T05:11:47.310Z,2.50
2022-07-26T05:14:21.353Z,2.83
2022-07-26T05:16:56.467Z,2.80
2022-07-26T05:19:36.510Z,2.83
2022-07-26T05:22:10.326Z,2.60
2022-07-26T05:24:48.715Z,2.70
2022-07-26T05:27:22.424Z,2.63
2022-07-26T05:29:55.949Z,2.70
2022-07-26T05:32:31.592Z,2.60
2022-07-26T05:35:06.104Z,2.40
2022-07-26T05:37:39.910Z,2.60
2022-07-26T05:40:14.439Z,2.60
2022-07-26T05:42:48.132Z,2.50
2022-07-26T05:45:26.655Z,2.67
2022-07-26T05:48:00.365Z,2.50
2022-07-26T05:50:35.978Z,2.60
2022-07-26T05:53:10.225Z,2.23
2022-07-26T05:55:43.914Z,2.40
2022-07-26T05:58:18.149Z,2.40
2022-07-26T06:00:54.573Z,2.50
2022-07-26T06:03:28.441Z,2.40
2022-07-26T06:06:03.018Z,2.53
2022-07-26T06:08:36.646Z,2.50
2022-07-26T06:11:10.493Z,2.37
2022-07-26T06:13:44.339Z,2.17
2022-07-26T06:16:18.467Z,2.40
2022-07-26T06:18:52.362Z,2.30
2022-07-26T06:21:25.875Z,2.30
2022-07-26T06:24:05.081Z,2.43
2022-07-26T06:26:39.131Z,2.50
2022-07-26T06:29:12.707Z,2.30
2022-07-26T06:31:46.260Z,2.50
2022-07-26T06:34:19.805Z,2.50
2022-07-26T06:36:56.590Z,2.40
2022-07-26T06:39:30.174Z,2.40
2022-07-26T06:42:03.806Z,2.40
2022-07-26T06:44:37.548Z,2.40
2022-07-26T06:47:11.599Z,2.40
2022-07-26T06:49:46.689Z,2.30
2022-07-26T06:52:20.255Z,2.20
2022-07-26T06:54:54.114Z,2.60
2022-07-26T06:57:27.674Z,2.40
2022-07-26T07:00:01.263Z,2.50
2022-07-26T07:02:35.035Z,2.50
2022-07-26T07:05:09.124Z,2.63
2022-07-26T07:07:43.182Z,2.60
2022-07-26T07:10:17.184Z,2.43
2022-07-26T07:12:51.422Z,2.70
2022-07-26T07:15:25.258Z,2.90
2022-07-26T07:17:59.127Z,2.90
2022-07-26T07:20:33.190Z,2.90
2022-07-26T07:23:07.052Z,2.80
2022-07-26T07:25:40.341Z,3.07
2022-07-26T07:28:13.944Z,2.70
2022-07-26T07:30:47.972Z,2.50
2022-07-26T07:33:23.261Z,2.60
2022-07-26T07:35:56.897Z,2.30
2022-07-26T07:38:37.459Z,2.73
2022-07-26T07:41:09.654Z,2.30
2022-07-26T07:43:45.840Z,2.40
2022-07-26T07:46:19.141Z,2.20
2022-07-26T07:48:52.574Z,2.40
2022-07-26T07:51:31.140Z,2.40
2022-07-26T07:54:05.877Z,2.80
2022-07-26T07:56:39.743Z,2.40
2022-07-26T07:59:13.466Z,2.20
2022-07-26T08:01:47.520Z,2.30
2022-07-26T08:04:26.466Z,2.40
2022-07-26T08:07:00.510Z,2.60
2022-07-26T08:09:34.159Z,2.50
2022-07-26T08:12:07.802Z,2.60
2022-07-26T08:14:41.531Z,2.70
2022-07-26T08:17:15.404Z,2.60
2022-07-26T08:19:50.573Z,2.23
2022-07-26T08:22:29.399Z,2.30
2022-07-26T08:25:03.271Z,2.30
2022-07-26T08:27:40.880Z,2.27
2022-07-26T08:30:17.792Z,2.27
2022-07-26T08:32:51.656Z,2.20
2022-07-26T08:35:25.259Z,2.27
2022-07-26T08:37:58.960Z,2.30
2022-07-26T08:40:32.665Z,2.30
2022-07-26T08:43:06.049Z,2.20
2022-07-26T08:45:39.893Z,2.30
2022-07-26T08:48:18.354Z,2.40
2022-07-26T08:50:48.824Z,2.30
2022-07-26T08:53:22.705Z,2.50
2022-07-26T08:56:07.032Z,2.30
2022-07-26T08:58:32.857Z,2.20
2022-07-26T09:01:16.312Z,2.10
2022-07-26T09:03:51.014Z,2.00
2022-07-26T09:06:26.495Z,2.00
2022-07-26T09:09:02.583Z,2.00
2022-07-26T09:11:37.588Z,2.00
2022-07-26T09:14:12.358Z,2.00
2022-07-26T09:16:45.891Z,2.03
2022-07-26T09:19:25.885Z,2.00
2022-07-26T09:22:00.964Z,2.10
2022-07-26T09:24:39.198Z,2.00
2022-07-26T09:27:14.748Z,2.00
2022-07-26T09:29:56.438Z,2.10
2022-07-26T09:32:31.149Z,2.17
2022-07-26T09:35:49.793Z,2.10
2022-07-26T09:37:57.235Z,2.00
2022-07-26T09:40:38.315Z,1.80
2022-07-26T09:43:12.196Z,1.70
2022-07-26T09:45:46.912Z,1.60
2022-07-26T09:48:33.074Z,1.70
2022-07-26T09:51:02.275Z,1.60
2022-07-26T09:53:47.056Z,1.50
2022-07-26T09:56:21.826Z,1.70
2022-07-26T09:58:56.979Z,1.60
2022-07-26T10:01:35.797Z,1.70
2022-07-26T10:04:10.211Z,1.50
2022-07-26T10:06:44.513Z,1.80
2022-07-26T10:09:24.568Z,1.50
2022-07-26T10:12:06.172Z,1.40
2022-07-26T10:14:47.266Z,1.60
2022-07-26T10:17:34.891Z,1.40
2022-07-26T10:20:17.232Z,1.40
2022-07-26T10:22:56.399Z,1.40
2022-07-26T10:25:31.884Z,1.40
2022-07-26T10:28:11.875Z,1.50
2022-07-26T10:30:40.863Z,1.40
2022-07-26T10:33:15.961Z,1.50
2022-07-26T10:35:49.956Z,1.30
2022-07-26T10:38:37.066Z,1.40
2022-07-26T10:41:11.341Z,1.40
2022-07-26T10:43:48.553Z,1.30
2022-07-26T10:46:24.709Z,1.30
2022-07-26T10:49:09.428Z,1.40
2022-07-26T10:51:48.953Z,1.50
2022-07-26T10:54:26.089Z,1.30
2022-07-26T10:56:59.217Z,1.40
2022-07-26T10:59:55.272Z,1.30
2022-07-26T11:02:23.254Z,1.37
2022-07-26T11:05:16.070Z,1.30
2022-07-26T11:08:06.611Z,1.30
2022-07-26T11:10:47.863Z,1.30
2022-07-26T11:13:27.039Z,1.40
2022-07-26T11:16:07.890Z,1.40
2022-07-26T11:18:42.462Z,1.30
2022-07-26T11:21:23.807Z,1.40
2022-07-26T11:23:57.569Z,1.53
2022-07-26T11:26:31.227Z,1.40
2022-07-26T11:29:07.902Z,1.30
2022-07-26T11:31:51.965Z,1.30
2022-07-26T11:34:28.946Z,1.27
2022-07-26T11:37:04.052Z,1.30
2022-07-26T11:39:38.976Z,1.30
2022-07-26T11:42:14.455Z,1.30
2022-07-26T11:44:52.136Z,1.30
2022-07-26T11:47:27.091Z,1.40
2022-07-26T11:50:13.801Z,1.30
2022-07-26T11:52:36.589Z,1.40
2022-07-26T11:55:10.963Z,1.37
2022-07-26T11:57:44.646Z,1.30
2022-07-26T12:00:19.477Z,1.30
2022-07-26T12:02:56.128Z,1.40
2022-07-26T12:05:29.547Z,1.40
2022-07-26T12:08:09.604Z,1.30
2022-07-26T12:10:43.628Z,1.30
2022-07-26T12:13:21.352Z,1.30
2022-07-26T12:15:59.184Z,1.30
2022-07-26T12:18:36.728Z,1.30
2022-07-26T12:21:12.135Z,1.40
2022-07-26T12:23:53.430Z,1.30
2022-07-26T12:26:28.585Z,1.40
2022-07-26T12:29:04.212Z,1.37
2022-07-26T12:31:43.384Z,1.40
2022-07-26T12:34:17.987Z,1.40
2022-07-26T12:36:51.460Z,1.50
2022-07-26T12:39:28.186Z,1.40
2022-07-26T12:42:01.673Z,1.40
2022-07-26T12:44:35.151Z,1.40
2022-07-26T12:47:09.016Z,1.50
2022-07-26T12:49:42.658Z,1.40
2022-07-26T12:52:17.110Z,1.40
2022-07-26T12:54:51.807Z,1.50
2022-07-26T12:57:26.074Z,1.40
2022-07-26T13:00:03.908Z,1.40
2022-07-26T13:02:37.618Z,1.30
2022-07-26T13:05:12.354Z,1.57
2022-07-26T13:07:46.057Z,1.30
2022-07-26T13:10:34.151Z,1.30
2022-07-26T13:13:05.026Z,1.30
2022-07-26T13:15:41.485Z,1.40
2022-07-26T13:18:15.054Z,1.30
2022-07-26T13:20:48.741Z,1.30
2022-07-26T13:23:27.390Z,1.23
2022-07-26T13:26:08.398Z,1.30
2022-07-26T13:28:41.892Z,1.20
2022-07-26T13:31:21.194Z,1.20
2022-07-26T13:33:54.500Z,1.30
2022-07-26T13:36:31.790Z,1.20
2022-07-26T13:39:04.748Z,1.27
2022-07-26T13:41:37.843Z,1.20
2022-07-26T13:44:11.721Z,1.20
2022-07-26T13:46:45.336Z,1.30
2022-07-26T13:49:25.921Z,1.30
2022-07-26T13:52:01.886Z,1.30
2022-07-26T13:54:36.715Z,1.30
2022-07-26T13:57:10.220Z,1.20
2022-07-26T13:59:43.263Z,1.23
2022-07-26T14:02:16.322Z,1.20
2022-07-26T14:04:50.506Z,1.20
2022-07-26T14:07:23.506Z,1.20
2022-07-26T14:09:56.489Z,1.20
2022-07-26T14:12:29.681Z,1.10
2022-07-26T14:15:03.845Z,1.10
2022-07-26T14:17:36.762Z,1.20
2022-07-26T14:20:10.573Z,1.10
2022-07-26T14:22:43.612Z,1.10
2022-07-26T14:25:16.625Z,1.10
2022-07-26T14:27:49.618Z,1.10
2022-07-26T14:30:24.732Z,1.10
2022-07-26T14:33:04.868Z,1.17
2022-07-26T14:35:37.966Z,1.20
2022-07-26T14:38:10.735Z,1.10
2022-07-26T14:40:44.058Z,1.10
2022-07-26T14:43:21.005Z,1.10
2022-07-26T14:45:57.099Z,1.10
2022-07-26T14:48:53.576Z,1.10
2022-07-26T14:51:09.563Z,1.00
2022-07-26T14:53:47.090Z,1.17
2022-07-26T14:56:20.456Z,1.20
2022-07-26T14:58:53.854Z,1.10
2022-07-26T15:01:26.922Z,1.20
2022-07-26T15:04:04.331Z,1.10
2022-07-26T15:06:37.214Z,1.10
2022-07-26T15:09:14.606Z,1.10
2022-07-26T15:11:51.612Z,1.20
2022-07-26T15:14:24.436Z,1.20
2022-07-26T15:16:57.588Z,1.10
2022-07-26T15:19:31.057Z,1.00
2022-07-26T15:22:03.934Z,1.10
2022-07-26T15:24:39.689Z,1.10
2022-07-26T15:27:10.966Z,1.10
2022-07-26T15:29:44.097Z,1.10
2022-07-26T15:32:18.291Z,1.00
2022-07-26T15:34:51.588Z,1.10
2022-07-26T15:37:26.941Z,1.10
2022-07-26T15:40:00.015Z,1.20
2022-07-26T15:42:35.211Z,1.00
2022-07-26T15:45:12.704Z,1.10
2022-07-26T15:47:57.353Z,1.10
2022-07-26T15:50:26.714Z,1.10
2022-07-26T15:52:59.710Z,1.10
2022-07-26T15:55:41.799Z,1.13
2022-07-26T15:58:15.657Z,1.10
2022-07-26T16:00:48.745Z,1.10
2022-07-26T16:03:22.243Z,1.10
2022-07-26T16:05:55.699Z,1.37
2022-07-26T16:08:28.690Z,1.10
2022-07-26T16:11:01.978Z,1.10
2022-07-26T16:13:34.972Z,1.00
2022-07-26T16:16:08.238Z,1.00
2022-07-26T16:18:42.077Z,1.10
2022-07-26T16:21:15.305Z,1.10
2022-07-26T16:23:48.842Z,1.10
2022-07-26T16:26:21.842Z,1.10
2022-07-26T16:28:58.752Z,1.20
2022-07-26T16:31:31.813Z,1.10
2022-07-26T16:34:04.640Z,1.10
2022-07-26T16:36:37.680Z,1.00
2022-07-26T16:39:13.869Z,1.00
2022-07-26T16:41:47.157Z,1.10
2022-07-26T16:44:20.046Z,1.10
2022-07-26T16:46:54.352Z,1.10
2022-07-26T16:49:27.635Z,1.10
2022-07-26T16:52:01.291Z,1.23
2022-07-26T16:54:38.805Z,1.10
2022-07-26T16:57:11.874Z,1.20
2022-07-26T16:59:44.760Z,1.10
2022-07-26T17:02:21.835Z,1.10
2022-07-26T17:04:56.560Z,1.20
2022-07-26T17:07:31.936Z,1.20
2022-07-26T17:10:04.766Z,1.20
2022-07-26T17:12:38.217Z,1.10
2022-07-26T17:15:12.873Z,1.20
2022-07-26T17:17:48.679Z,1.20
2022-07-26T17:20:19.800Z,1.13
2022-07-26T17:22:52.892Z,1.20
2022-07-26T17:25:26.493Z,1.20
2022-07-26T17:28:04.651Z,1.10
2022-07-26T17:30:43.054Z,1.10
2022-07-26T17:33:16.136Z,1.20
2022-07-26T17:35:48.988Z,1.20
2022-07-26T17:38:21.974Z,1.20
2022-07-26T17:40:56.647Z,1.30
2022-07-26T17:43:36.355Z,1.30
2022-07-26T17:46:04.352Z,1.20
2022-07-26T17:48:37.408Z,1.20
2022-07-26T17:51:13.095Z,1.20
2022-07-26T17:53:48.617Z,1.30
2022-07-26T17:56:20.246Z,1.30
2022-07-26T17:58:53.343Z,1.30
2022-07-26T18:01:26.589Z,1.30
2022-07-26T18:04:00.026Z,1.20
2022-07-26T18:06:32.991Z,1.20
2022-07-26T18:09:07.138Z,1.10
2022-07-26T18:11:41.086Z,1.10
2022-07-26T18:14:14.926Z,1.10
2022-07-26T18:16:53.977Z,1.10
2022-07-26T18:19:27.542Z,1.10
2022-07-26T18:22:05.506Z,1.10
2022-07-26T18:24:34.803Z,1.10
2022-07-26T18:27:07.723Z,1.20
2022-07-26T18:29:43.336Z,1.20
2022-07-26T18:32:15.217Z,1.20
2022-07-26T18:34:52.078Z,1.20
2022-07-26T18:37:23.383Z,1.20
2022-07-26T18:39:58.094Z,1.30
2022-07-26T18:42:30.706Z,1.50
2022-07-26T18:45:03.656Z,1.20
2022-07-26T18:47:36.883Z,1.27
2022-07-26T18:50:10.854Z,1.30
2022-07-26T18:52:43.874Z,1.40
2022-07-26T18:55:17.980Z,1.50
2022-07-26T18:57:50.923Z,1.20
2022-07-26T19:00:24.899Z,1.20
2022-07-26T19:02:59.125Z,1.30
2022-07-26T19:05:34.426Z,1.30
2022-07-26T19:08:06.715Z,1.30
2022-07-26T19:10:39.664Z,1.10
2022-07-26T19:13:13.505Z,1.30
2022-07-26T19:15:46.656Z,1.30
2022-07-26T19:18:19.676Z,1.20
2022-07-26T19:20:52.876Z,1.30
2022-07-26T19:23:26.206Z,1.20
2022-07-26T19:25:59.309Z,1.30
2022-07-26T19:28:32.420Z,1.30
2022-07-26T19:31:06.179Z,1.20
2022-07-26T19:33:39.223Z,1.20
2022-07-26T19:36:12.748Z,1.27
2022-07-26T19:38:46.867Z,1.30
2022-07-26T19:41:21.235Z,1.20
2022-07-26T19:43:54.517Z,1.10
2022-07-26T19:46:27.896Z,1.20
2022-07-26T19:49:00.923Z,1.20
2022-07-26T19:51:34.299Z,1.30
2022-07-26T19:54:11.741Z,1.20
2022-07-26T19:56:44.517Z,1.20
2022-07-26T19:59:22.986Z,1.20
2022-07-26T20:01:53.047Z,1.10
2022-07-26T20:04:27.014Z,1.10
2022-07-26T20:06:59.863Z,1.20
2022-07-26T20:09:32.730Z,1.30
2022-07-26T20:12:09.846Z,1.30
2022-07-26T20:14:43.888Z,1.40
2022-07-26T20:17:17.020Z,1.30
2022-07-26T20:19:50.264Z,1.20
2022-07-26T20:22:24.492Z,1.30
2022-07-26T20:25:02.422Z,1.30
2022-07-26T20:27:35.877Z,1.30
2022-07-26T20:30:10.921Z,1.40
2022-07-26T20:32:44.183Z,1.23
2022-07-26T20:35:17.062Z,1.20
2022-07-26T20:37:49.990Z,1.30
2022-07-26T20:40:23.021Z,1.30
2022-07-26T20:42:57.050Z,1.40
2022-07-26T20:45:30.259Z,1.43
2022-07-26T20:48:03.353Z,1.30
2022-07-26T20:50:36.251Z,1.30
2022-07-26T20:53:09.229Z,1.40
2022-07-26T20:55:41.988Z,1.30
2022-07-26T20:58:14.867Z,1.50
2022-07-26T21:00:48.314Z,1.40
2022-07-26T21:03:25.728Z,1.47
2022-07-26T21:05:58.900Z,1.50
2022-07-26T21:08:31.843Z,1.40
2022-07-26T21:11:04.877Z,1.53
2022-07-26T21:13:38.296Z,1.30
2022-07-26T21:16:11.347Z,1.50
2022-07-26T21:18:45.987Z,1.40
2022-07-26T21:21:24.207Z,1.60
2022-07-26T21:23:57.295Z,1.60
2022-07-26T21:26:30.098Z,1.70
2022-07-26T21:29:03.117Z,1.50
2022-07-26T21:31:36.258Z,1.50
2022-07-26T21:34:09.237Z,1.50
2022-07-26T21:36:44.959Z,1.90
2022-07-26T21:39:17.823Z,1.70
2022-07-26T21:41:54.918Z,1.80
2022-07-26T21:44:28.579Z,1.60
2022-07-26T21:47:01.511Z,1.60
2022-07-26T21:49:34.593Z,1.50
2022-07-26T21:52:07.533Z,1.80
2022-07-26T21:54:40.137Z,1.70
2022-07-26T21:57:13.367Z,1.70
2022-07-26T21:59:46.205Z,1.70
2022-07-26T22:02:21.880Z,1.63
2022-07-26T22:04:54.543Z,1.70
2022-07-26T22:07:31.830Z,1.60
2022-07-26T22:10:04.998Z,1.70
2022-07-26T22:12:37.926Z,1.80
2022-07-26T22:15:11.461Z,1.90
2022-07-26T22:17:48.873Z,1.80
2022-07-26T22:20:21.940Z,1.70
2022-07-26T22:22:54.598Z,1.90
2022-07-26T22:25:31.707Z,1.80
2022-07-26T22:28:05.819Z,1.70
2022-07-26T22:30:39.234Z,1.60
2022-07-26T22:33:13.892Z,1.70
2022-07-26T22:35:47.626Z,2.03
2022-07-26T22:38:20.747Z,1.70
2022-07-26T22:40:53.727Z,1.80
2022-07-26T22:43:26.585Z,1.90
2022-07-26T22:45:59.580Z,2.00
2022-07-26T22:48:34.832Z,2.20
2022-07-26T22:51:06.588Z,2.10
2022-07-26T22:53:39.544Z,2.17
2022-07-26T22:56:12.790Z,2.30
2022-07-26T22:58:46.630Z,2.40
2022-07-26T23:01:19.627Z,2.40
2022-07-26T23:03:59.011Z,2.30
2022-07-26T23:06:32.480Z,2.30
2022-07-26T23:11:55.996Z,2.40
2022-07-26T23:14:32.028Z,2.20
2022-07-26T23:17:05.308Z,2.50
2022-07-26T23:19:38.515Z,2.50
2022-07-26T23:25:02.044Z,3.10
2022-07-26T23:27:37.495Z,3.00
2022-07-26T23:30:13.614Z,3.00
2022-07-26T23:32:46.514Z,3.23
2022-07-26T23:35:19.780Z,3.10
2022-07-26T23:37:55.345Z,2.80
2022-07-26T23:40:28.343Z,2.80
2022-07-26T23:43:01.161Z,2.67
2022-07-26T23:45:34.165Z,2.80
2022-07-26T23:48:07.101Z,2.80
2022-07-26T23:50:40.099Z,2.90
2022-07-26T23:53:17.410Z,2.80
2022-07-26T23:55:50.404Z,2.90
2022-07-26T23:58:23.811Z,3.00
